Bookmark and Share
Track history (hours):
 

Punta Gialla

Last reported at 2014-Apr-18 23:33 UTC. Time now 2014-Apr-19 00:16 UTC.
Position N 44°24' E 008°55'.

Length 52 m; draft 2 m.

Type: Tanker. MMSI: 247077500.

NotesDate/timePositionNaut miles runAvg speedWind from/ knotsBaromVisibWave heightAir tempDewpointWater temp
2014-Apr-18 23:33N 44°24' E 008°55'0 0.0
2014-Apr-18 22:33N 44°24' E 008°55'0 0.0
2014-Apr-18 21:33N 44°24' E 008°55'0 0.0
2014-Apr-18 20:33N 44°24' E 008°55'0 0.0
2014-Apr-18 19:33N 44°24' E 008°55'0 0.0
2014-Apr-18 18:33N 44°24' E 008°55'0 0.0
2014-Apr-18 17:33N 44°24' E 008°55'0 0.0
2014-Apr-18 16:33N 44°24' E 008°55'0 0.0
2014-Apr-18 15:33N 44°24' E 008°55'0 0.0
2014-Apr-18 14:33N 44°24' E 008°55'0 0.4
2014-Apr-18 13:32N 44°24' E 008°54'0 0.0
2014-Apr-18 12:33N 44°24' E 008°54'0 0.0
2014-Apr-18 11:33N 44°24' E 008°54'0 0.0
2014-Apr-18 10:33N 44°24' E 008°54'0 0.0
2014-Apr-18 09:33N 44°24' E 008°54'0 0.0
2014-Apr-18 08:33N 44°24' E 008°54'0 0.0
2014-Apr-18 07:33N 44°24' E 008°54'0 0.0
2014-Apr-18 06:33N 44°24' E 008°54'0 0.0
2014-Apr-18 05:33N 44°24' E 008°54'0 0.0
2014-Apr-18 04:33N 44°24' E 008°54'0 0.0
2014-Apr-18 03:33N 44°24' E 008°54'0 0.0
2014-Apr-18 02:33N 44°24' E 008°54'0 0.0
2014-Apr-18 01:33N 44°24' E 008°54'0 0.0
2014-Apr-18 00:33N 44°24' E 008°54'0 0.0
2014-Apr-17 23:33N 44°24' E 008°54'0 0.0
2014-Apr-17 22:33N 44°24' E 008°54'0 0.0
2014-Apr-17 21:33N 44°24' E 008°54'0 0.0
2014-Apr-17 20:33N 44°24' E 008°54'0 0.0
2014-Apr-17 19:33N 44°24' E 008°54'0 0.0
2014-Apr-17 18:33N 44°24' E 008°54'0 0.0
2014-Apr-17 17:33N 44°24' E 008°54'0 0.0
2014-Apr-17 16:33N 44°24' E 008°54'0 0.0
2014-Apr-17 15:33N 44°24' E 008°54'0 0.1
2014-Apr-17 14:33N 44°24' E 008°54'0 0.0
2014-Apr-17 13:33N 44°24' E 008°54'0 0.0
2014-Apr-17 12:33N 44°24' E 008°54'1 1.0
2014-Apr-17 11:33N 44°24' E 008°53'0 0.0
2014-Apr-17 10:33N 44°24' E 008°53'0 0.0
2014-Apr-17 09:33N 44°24' E 008°53'0 0.0
2014-Apr-17 08:33N 44°24' E 008°53'0 0.0
2014-Apr-17 07:33N 44°24' E 008°53'1 1.0
2014-Apr-17 06:33N 44°24' E 008°54'0 0.2
2014-Apr-17 05:33N 44°24' E 008°54'0 0.0
2014-Apr-17 04:33N 44°24' E 008°54'0 0.0
2014-Apr-17 03:32N 44°24' E 008°54'0 0.0
2014-Apr-17 02:33N 44°24' E 008°54'0 0.0
2014-Apr-17 01:33N 44°24' E 008°54'0 0.0
2014-Apr-17 00:33N 44°24' E 008°54'0 0.0
2014-Apr-16 23:33N 44°24' E 008°54'0 0.0
2014-Apr-16 22:33N 44°24' E 008°54'0 0.0
2014-Apr-16 21:33N 44°24' E 008°54'0 0.0
2014-Apr-16 20:33N 44°24' E 008°54'0 0.0
2014-Apr-16 19:33N 44°24' E 008°54'3 3.2
2014-Apr-16 18:32N 44°24' E 008°50'1 0.5
2014-Apr-16 16:32N 44°25' E 008°50'0 0.0
2014-Apr-16 15:33N 44°25' E 008°50'2 2.2
2014-Apr-16 14:33N 44°24' E 008°52'2 1.9
2014-Apr-16 13:33N 44°24' E 008°55'0 0.0
2014-Apr-16 12:33N 44°24' E 008°55'0 0.0
2014-Apr-16 11:33N 44°24' E 008°55'2 1.7
2014-Apr-16 10:33N 44°24' E 008°53'0 0.2
2014-Apr-16 09:33N 44°24' E 008°52'0 0.0
2014-Apr-16 08:33N 44°24' E 008°52'1 1.4
2014-Apr-16 07:32N 44°24' E 008°54'0 0.0
2014-Apr-16 06:32N 44°24' E 008°54'0 0.0
2014-Apr-16 05:33N 44°24' E 008°54'0 0.0
2014-Apr-16 04:33N 44°24' E 008°54'0 0.0
2014-Apr-16 03:33N 44°24' E 008°54'2 1.8
2014-Apr-16 02:33N 44°24' E 008°52'0 0.0
2014-Apr-16 01:33N 44°24' E 008°52'0 0.0
2014-Apr-16 00:33N 44°24' E 008°52'0 0.0
2014-Apr-15 23:33N 44°24' E 008°52'1 0.6
2014-Apr-15 22:33N 44°24' E 008°53'1 1.1
2014-Apr-15 21:33N 44°24' E 008°54'0 0.0
2014-Apr-15 20:31N 44°24' E 008°54'0 0.0
2014-Apr-15 19:33N 44°24' E 008°54'0 0.0
2014-Apr-15 18:33N 44°24' E 008°54'1 0.8
2014-Apr-15 17:29N 44°24' E 008°56'0 0.0
2014-Apr-15 16:32N 44°24' E 008°56'0 0.0
2014-Apr-15 15:33N 44°24' E 008°56'1 0.9
2014-Apr-15 14:33N 44°24' E 008°54'0 0.0
2014-Apr-15 12:34N 44°24' E 008°54'0 0.0
2014-Apr-15 11:33N 44°24' E 008°54'0 0.5
2014-Apr-15 10:34N 44°24' E 008°54'0 0.0
2014-Apr-15 09:33N 44°24' E 008°54'0 0.0
2014-Apr-15 08:30N 44°24' E 008°54'1 1.0
2014-Apr-15 07:34N 44°24' E 008°55'0 0.0
2014-Apr-15 06:34N 44°24' E 008°55'0 0.4
2014-Apr-15 05:33N 44°24' E 008°54'0 0.0
2014-Apr-15 03:33N 44°24' E 008°54'0 0.0
2014-Apr-15 02:34N 44°24' E 008°54'0 0.0
2014-Apr-15 01:34N 44°24' E 008°54'0 0.0
2014-Apr-15 00:34N 44°24' E 008°54'0 0.0
2014-Apr-14 23:33N 44°24' E 008°54'0 0.0
2014-Apr-14 22:33N 44°24' E 008°54'0 0.0
2014-Apr-14 21:34N 44°24' E 008°54'0 0.1
2014-Apr-14 20:34N 44°24' E 008°54'0 0.0
2014-Apr-14 19:33N 44°24' E 008°54'0 0.0
2014-Apr-14 18:33N 44°24' E 008°54'0 0.1
2014-Apr-14 17:33N 44°24' E 008°54'0 0.0
2014-Apr-14 16:33N 44°24' E 008°54'0 0.0
2014-Apr-14 15:33N 44°24' E 008°54'0 0.0
2014-Apr-14 14:34N 44°24' E 008°54'0 0.1
2014-Apr-14 13:34N 44°24' E 008°54'1 0.5
2014-Apr-14 11:33N 44°24' E 008°53'0 0.0
2014-Apr-14 10:33N 44°24' E 008°53'1 0.8
2014-Apr-14 09:33N 44°24' E 008°54'0 0.4
2014-Apr-14 08:33N 44°24' E 008°54'0 0.0
2014-Apr-14 07:33N 44°24' E 008°54'0 0.0
2014-Apr-14 05:33N 44°24' E 008°54'0 0.0
2014-Apr-13 22:33N 44°24' E 008°54'0 0.0
2014-Apr-13 21:33N 44°24' E 008°54'0 0.0
2014-Apr-13 20:33N 44°24' E 008°54'0 0.0
2014-Apr-13 19:33N 44°24' E 008°54'0 0.0
2014-Apr-13 18:33N 44°24' E 008°54'0 0.0
2014-Apr-13 17:33N 44°24' E 008°54'0 0.0
2014-Apr-13 16:33N 44°24' E 008°54'0 0.0
2014-Apr-13 15:33N 44°24' E 008°54'0 0.0
2014-Apr-13 14:33N 44°24' E 008°54'0 0.0
2014-Apr-13 13:33N 44°24' E 008°54'0 0.0
2014-Apr-13 12:33N 44°24' E 008°54'0 0.0
2014-Apr-13 11:33N 44°24' E 008°54'0 0.0
2014-Apr-13 10:33N 44°24' E 008°54'0 0.0
2014-Apr-13 09:33N 44°24' E 008°54'0 0.0
2014-Apr-13 08:33N 44°24' E 008°54'0 0.0
2014-Apr-13 07:33N 44°24' E 008°54'0 0.0
2014-Apr-13 06:33N 44°24' E 008°54'0 0.0
2014-Apr-13 05:33N 44°24' E 008°54'0 0.0
2014-Apr-13 04:33N 44°24' E 008°54'0 0.0
2014-Apr-13 03:33N 44°24' E 008°54'0 0.0
2014-Apr-13 02:33N 44°24' E 008°54'0 0.0
2014-Apr-13 01:33N 44°24' E 008°54'0 0.0
2014-Apr-13 00:33N 44°24' E 008°54'0 0.0
2014-Apr-12 23:33N 44°24' E 008°54'0 0.0
2014-Apr-12 22:33N 44°24' E 008°54'0 0.0
2014-Apr-12 21:33N 44°24' E 008°54'0 0.0
2014-Apr-12 20:33N 44°24' E 008°54'0 0.0
2014-Apr-12 19:33N 44°24' E 008°54'0 0.0
2014-Apr-12 18:33N 44°24' E 008°54'0 0.0
2014-Apr-12 17:33N 44°24' E 008°54'0 0.0
2014-Apr-12 16:32N 44°24' E 008°54'0 0.0
2014-Apr-12 15:33N 44°24' E 008°54'0 0.0
2014-Apr-12 14:33N 44°24' E 008°54'0 0.0
2014-Apr-12 13:33N 44°24' E 008°54'0 0.0
2014-Apr-12 12:33N 44°24' E 008°54'0 0.4
2014-Apr-12 11:33N 44°24' E 008°54'0 0.0
2014-Apr-12 10:32N 44°24' E 008°54'0 0.0
2014-Apr-12 09:31N 44°24' E 008°54'1 0.7
2014-Apr-12 08:33N 44°24' E 008°55'0 0.0
2014-Apr-12 07:33N 44°24' E 008°55'1 0.6
2014-Apr-12 06:33N 44°24' E 008°55'0 0.3
2014-Apr-12 05:33N 44°24' E 008°54'0 0.0
2014-Apr-12 04:33N 44°24' E 008°54'0 0.0
2014-Apr-12 03:33N 44°24' E 008°54'0 0.0
2014-Apr-12 02:33N 44°24' E 008°54'0 0.0
2014-Apr-12 01:33N 44°24' E 008°54'0 0.0
2014-Apr-12 00:33N 44°24' E 008°54'0 0.0
2014-Apr-11 23:33N 44°24' E 008°54'0 0.0
2014-Apr-11 22:33N 44°24' E 008°54'0 0.0
2014-Apr-11 21:33N 44°24' E 008°54'0 0.0
2014-Apr-11 20:32N 44°24' E 008°54'0 0.0
2014-Apr-11 19:33N 44°24' E 008°54'0 0.0
2014-Apr-11 18:33N 44°24' E 008°54'0 0.0
2014-Apr-11 17:33N 44°24' E 008°54'0 0.0
2014-Apr-11 16:33N 44°24' E 008°54'4 3.7
2014-Apr-11 15:31N 44°25' E 008°49'0 0.2
2014-Apr-11 13:12N 44°25' E 008°49'4 6.3
2014-Apr-11 12:33N 44°24' E 008°54'1 0.6
2014-Apr-11 11:33N 44°24' E 008°55'0 0.0
2014-Apr-11 10:33N 44°24' E 008°55'0 0.0
2014-Apr-11 09:33N 44°24' E 008°55'0 0.0
2014-Apr-11 08:33N 44°24' E 008°55'1 0.8
2014-Apr-11 07:33N 44°24' E 008°54'0 0.3
2014-Apr-11 06:33N 44°24' E 008°54'0 0.2
2014-Apr-11 05:33N 44°24' E 008°54'0 0.0
2014-Apr-11 04:33N 44°24' E 008°54'0 0.0
2014-Apr-11 03:33N 44°24' E 008°54'0 0.0
2014-Apr-11 02:33N 44°24' E 008°54'0 0.0
2014-Apr-11 01:33N 44°24' E 008°54'0 0.0
2014-Apr-11 00:33N 44°24' E 008°54'0 0.0
2014-Apr-10 23:33N 44°24' E 008°54'0 0.0
2014-Apr-10 22:32N 44°24' E 008°54'0 0.0
2014-Apr-10 21:33N 44°24' E 008°54'0 0.0
2014-Apr-10 20:33N 44°24' E 008°54'0 0.0
2014-Apr-10 19:33N 44°24' E 008°54'0 0.0
2014-Apr-10 18:32N 44°24' E 008°54'0 0.0
2014-Apr-10 17:33N 44°24' E 008°54'0 0.0
2014-Apr-10 16:33N 44°24' E 008°54'0 0.0
2014-Apr-10 15:33N 44°24' E 008°54'0 0.0
2014-Apr-10 14:33N 44°24' E 008°54'0 0.0
2014-Apr-10 13:33N 44°24' E 008°54'2 1.6
2014-Apr-10 12:33N 44°24' E 008°52'0 0.0
2014-Apr-10 11:33N 44°24' E 008°52'0 0.0
2014-Apr-10 10:33N 44°24' E 008°52'1 1.2
2014-Apr-10 09:33N 44°24' E 008°54'1 0.9
2014-Apr-10 08:33N 44°24' E 008°55'0 0.0
2014-Apr-10 07:33N 44°24' E 008°55'0 0.0
2014-Apr-10 06:33N 44°24' E 008°55'0 0.1
2014-Apr-10 05:32N 44°24' E 008°55'0 0.0
2014-Apr-10 04:31N 44°24' E 008°55'0 0.0
2014-Apr-10 03:33N 44°24' E 008°55'0 0.0
2014-Apr-10 02:33N 44°24' E 008°55'0 0.0
2014-Apr-10 01:33N 44°24' E 008°55'0 0.0
2014-Apr-10 00:31N 44°24' E 008°55'2 2.5
2014-Apr-09 23:33N 44°23' E 008°52'1010.2
2014-Apr-09 22:33N 44°19' E 008°39'6 6.0
2014-Apr-09 21:33N 44°17' E 008°31'0 0.0
2014-Apr-09 20:31N 44°17' E 008°31'0 0.1
2014-Apr-09 19:33N 44°17' E 008°31'0 0.1
2014-Apr-09 18:33N 44°17' E 008°30'1 0.6
2014-Apr-09 16:06N 44°19' E 008°30'0 0.0
2014-Apr-09 15:32N 44°19' E 008°30'0 0.0
2014-Apr-09 14:33N 44°19' E 008°30'0 0.1
2014-Apr-09 13:33N 44°19' E 008°30'9 9.0
2014-Apr-09 12:32N 44°20' E 008°43'8 8.6
2014-Apr-09 11:33N 44°24' E 008°53'1 1.0
2014-Apr-09 10:33N 44°24' E 008°54'0 0.2
2014-Apr-09 09:33N 44°24' E 008°54'0 0.0
2014-Apr-09 08:33N 44°24' E 008°54'0 0.0
2014-Apr-09 07:34N 44°24' E 008°54'0 0.0
2014-Apr-09 06:31N 44°24' E 008°54'0 0.0
2014-Apr-09 05:33N 44°24' E 008°54'0 0.0
2014-Apr-09 04:33N 44°24' E 008°54'0 0.0
2014-Apr-09 03:33N 44°24' E 008°54'3 2.7
2014-Apr-09 02:33N 44°24' E 008°51'3 3.0
2014-Apr-09 01:33N 44°25' E 008°47'0 0.0
2014-Apr-09 00:32N 44°25' E 008°47'  

Dump ship's entire track history

sailing weather and tide predictions

Punta Gialla — IWUC — position and weather